createdAt,value
2016-10-21T00:00:47.404Z,0
2016-10-21T00:01:47.467Z,0
2016-10-21T00:02:47.533Z,0
2016-10-21T00:03:47.568Z,0
2016-10-21T00:04:47.757Z,0
2016-10-21T00:05:47.673Z,0
2016-10-21T00:06:47.722Z,0
2016-10-21T00:07:47.801Z,0
2016-10-21T00:08:47.870Z,0
2016-10-21T00:09:48.003Z,0
2016-10-21T00:10:47.957Z,0
2016-10-21T00:11:47.967Z,0
2016-10-21T00:12:48.608Z,0
2016-10-21T00:13:48.610Z,0
2016-10-21T00:14:48.160Z,0
2016-10-21T00:15:48.337Z,0
2016-10-21T00:16:48.282Z,0
2016-10-21T00:17:48.328Z,0
2016-10-21T00:18:48.370Z,0
2016-10-21T00:19:48.942Z,0
2016-10-21T00:20:48.632Z,0
2016-10-21T00:21:48.537Z,0
2016-10-21T00:22:48.571Z,0
2016-10-21T00:23:48.612Z,0
2016-10-21T00:24:48.718Z,0
2016-10-21T00:25:48.857Z,0
2016-10-21T00:26:48.794Z,0
2016-10-21T00:27:49.393Z,0
2016-10-21T00:28:48.961Z,0
2016-10-21T00:29:48.976Z,0
2016-10-21T00:30:49.165Z,0
2016-10-21T00:31:49.590Z,0
2016-10-21T00:32:49.126Z,0
2016-10-21T00:33:49.152Z,0
2016-10-21T00:34:49.290Z,0
2016-10-21T00:35:49.440Z,0
2016-10-21T00:36:49.384Z,0
2016-10-21T00:37:49.403Z,0
2016-10-21T00:38:49.944Z,0
2016-10-21T00:39:49.506Z,0
2016-10-21T00:40:49.584Z,0
2016-10-21T00:41:50.257Z,0
2016-10-21T00:42:49.708Z,0
2016-10-21T00:43:50.221Z,0
2016-10-21T00:44:50.307Z,0
2016-10-21T00:45:49.823Z,0
2016-10-21T00:46:50.040Z,0
2016-10-21T00:47:49.938Z,0
2016-10-21T00:48:50.516Z,0
2016-10-21T00:49:50.078Z,0
2016-10-21T00:50:50.654Z,0
2016-10-21T00:51:50.255Z,0
2016-10-21T00:52:50.212Z,0
2016-10-21T00:53:50.266Z,0
2016-10-21T00:54:50.313Z,0
2016-10-21T00:55:50.366Z,0
2016-10-21T00:56:51.040Z,0
2016-10-21T00:57:50.456Z,0
2016-10-21T00:58:50.506Z,0
2016-10-21T00:59:50.583Z,0
2016-10-21T01:00:50.644Z,0
2016-10-21T01:01:50.757Z,0
2016-10-21T01:02:50.749Z,0
2016-10-21T01:03:50.827Z,0
2016-10-21T01:04:50.839Z,0
2016-10-21T01:05:50.890Z,0
2016-10-21T01:06:51.584Z,0
2016-10-21T01:07:50.954Z,0
2016-10-21T01:08:51.065Z,0
2016-10-21T01:09:51.099Z,0
2016-10-21T01:10:51.153Z,0
2016-10-21T01:11:51.302Z,0
2016-10-21T01:12:51.244Z,0
2016-10-21T01:13:51.312Z,0
2016-10-21T01:14:51.366Z,0
2016-10-21T01:15:51.433Z,0
2016-10-21T01:16:51.516Z,0
2016-10-21T01:17:51.689Z,0
2016-10-21T01:18:51.582Z,0
2016-10-21T01:19:52.228Z,0
2016-10-21T01:20:51.696Z,0
2016-10-21T01:21:51.734Z,0
2016-10-21T01:22:51.925Z,0
2016-10-21T01:23:51.897Z,0
2016-10-21T01:24:52.393Z,0
2016-10-21T01:25:52.481Z,0
2016-10-21T01:26:52.031Z,0
2016-10-21T01:27:53.226Z,0
2016-10-21T01:28:52.110Z,0
2016-10-21T01:29:52.131Z,0
2016-10-21T01:30:52.221Z,0
2016-10-21T01:31:52.267Z,0
2016-10-21T01:32:52.465Z,0
2016-10-21T01:33:52.377Z,0
2016-10-21T01:34:52.401Z,0
2016-10-21T01:35:52.520Z,0
2016-10-21T01:36:52.532Z,0
2016-10-21T01:37:52.714Z,0
2016-10-21T01:38:52.643Z,0
2016-10-21T01:39:52.693Z,0
2016-10-21T01:40:53.306Z,0
2016-10-21T01:41:52.773Z,0
2016-10-21T01:42:52.959Z,0
2016-10-21T01:43:52.929Z,0
2016-10-21T01:44:52.909Z,0
2016-10-21T01:45:53.036Z,0
2016-10-21T01:46:53.055Z,0
2016-10-21T01:47:53.181Z,0
2016-10-21T01:48:53.148Z,0
2016-10-21T01:49:53.766Z,0
2016-10-21T01:50:53.317Z,0
2016-10-21T01:51:53.286Z,0
2016-10-21T01:52:53.366Z,0
2016-10-21T01:53:53.553Z,0
2016-10-21T01:54:53.462Z,0
2016-10-21T01:55:53.536Z,0
2016-10-21T01:56:53.616Z,0
2016-10-21T01:57:53.640Z,0
2016-10-21T01:58:54.878Z,0
2016-10-21T01:59:53.809Z,0
2016-10-21T02:00:53.802Z,0
2016-10-21T02:01:53.849Z,0
2016-10-21T02:02:53.921Z,0
2016-10-21T02:03:54.613Z,0
2016-10-21T02:04:54.010Z,0
2016-10-21T02:05:54.043Z,0
2016-10-21T02:06:54.093Z,0
2016-10-21T02:07:54.168Z,0
2016-10-21T02:08:55.040Z,0
2016-10-21T02:09:54.307Z,0
2016-10-21T02:10:54.408Z,0
2016-10-21T02:11:54.902Z,0
2016-10-21T02:12:54.504Z,0
2016-10-21T02:13:54.573Z,0
2016-10-21T02:14:54.520Z,0
2016-10-21T02:15:54.598Z,0
2016-10-21T02:16:54.625Z,0
2016-10-21T02:17:54.686Z,0
2016-10-21T02:18:54.838Z,0
2016-10-21T02:19:54.786Z,0
2016-10-21T02:20:54.884Z,0
2016-10-21T02:21:54.919Z,0
2016-10-21T02:22:54.992Z,0
2016-10-21T02:23:55.148Z,0
2016-10-21T02:24:55.050Z,0
2016-10-21T02:25:55.639Z,0
2016-10-21T02:26:55.693Z,0
2016-10-21T02:27:55.220Z,0
2016-10-21T02:28:55.409Z,0
2016-10-21T02:29:55.391Z,0
2016-10-21T02:30:55.382Z,0
2016-10-21T02:31:55.410Z,0
2016-10-21T02:32:55.516Z,0
2016-10-21T02:33:56.069Z,0
2016-10-21T02:34:56.264Z,0
2016-10-21T02:35:55.704Z,0
2016-10-21T02:36:55.711Z,0
2016-10-21T02:37:55.784Z,0
2016-10-21T02:38:55.835Z,0
2016-10-21T02:39:55.974Z,0
2016-10-21T02:40:55.959Z,0
2016-10-21T02:41:55.997Z,0
2016-10-21T02:42:56.077Z,0
2016-10-21T02:43:56.066Z,0
2016-10-21T02:44:56.197Z,0
2016-10-21T02:45:56.180Z,0
2016-10-21T02:46:56.228Z,0
2016-10-21T02:47:56.245Z,0
2016-10-21T02:48:56.373Z,0
2016-10-21T02:49:56.503Z,0
2016-10-21T02:50:56.420Z,0
2016-10-21T02:51:56.525Z,0
2016-10-21T02:52:56.510Z,0
2016-10-21T02:53:56.593Z,0
2016-10-21T02:54:56.710Z,0
2016-10-21T02:55:56.706Z,0
2016-10-21T02:56:56.752Z,0
2016-10-21T02:57:56.799Z,0
2016-10-21T02:58:56.871Z,0
2016-10-21T02:59:57.033Z,0
2016-10-21T03:00:56.944Z,0
2016-10-21T03:01:57.546Z,0
2016-10-21T03:02:57.060Z,0
2016-10-21T03:03:57.123Z,0
2016-10-21T03:04:57.170Z,0
2016-10-21T03:05:57.374Z,0
2016-10-21T03:06:57.302Z,0
2016-10-21T03:07:57.348Z,0
2016-10-21T03:08:57.392Z,0
2016-10-21T03:09:57.461Z,0
2016-10-21T03:10:58.193Z,0
2016-10-21T03:11:57.535Z,0
2016-10-21T03:12:57.607Z,0
2016-10-21T03:13:57.708Z,0
2016-10-21T03:14:57.696Z,0
2016-10-21T03:15:57.842Z,0
2016-10-21T03:16:57.892Z,0
2016-10-21T03:17:58.380Z,0
2016-10-21T03:18:57.925Z,0
2016-10-21T03:19:57.973Z,0
2016-10-21T03:20:58.159Z,0
2016-10-21T03:21:58.116Z,0
2016-10-21T03:22:58.135Z,0
2016-10-21T03:23:58.215Z,0
2016-10-21T03:24:58.264Z,0
2016-10-21T03:25:58.452Z,0
2016-10-21T03:26:58.395Z,0
2016-10-21T03:27:58.432Z,0
2016-10-21T03:28:58.483Z,0
2016-10-21T03:29:58.516Z,0
2016-10-21T03:30:58.630Z,0
2016-10-21T03:31:58.623Z,0
2016-10-21T03:32:59.175Z,0
2016-10-21T03:33:58.699Z,0
2016-10-21T03:34:59.303Z,0
2016-10-21T03:35:59.445Z,0
2016-10-21T03:36:58.827Z,0
2016-10-21T03:37:58.932Z,0
2016-10-21T03:38:58.975Z,0
2016-10-21T03:39:59.036Z,0
2016-10-21T03:40:59.179Z,0
2016-10-21T03:41:59.149Z,0
2016-10-21T03:42:59.193Z,0
2016-10-21T03:43:59.205Z,0
2016-10-21T03:44:59.304Z,0
2016-10-21T03:45:59.372Z,0
2016-10-21T03:46:59.474Z,0
2016-10-21T03:47:59.465Z,0
2016-10-21T03:48:59.519Z,0
2016-10-21T03:49:59.560Z,0
2016-10-21T03:50:59.671Z,0
2016-10-21T03:51:59.818Z,0
2016-10-21T03:52:59.725Z,0
2016-10-21T03:54:00.878Z,0
2016-10-21T03:54:59.815Z,0
2016-10-21T03:55:59.891Z,0
2016-10-21T03:57:00.068Z,0
2016-10-21T03:57:59.988Z,0
2016-10-21T03:59:00.019Z,0
2016-10-21T04:00:00.135Z,0
2016-10-21T04:01:00.115Z,0
2016-10-21T04:02:00.307Z,0
2016-10-21T04:03:00.249Z,0
2016-10-21T04:04:00.298Z,0
2016-10-21T04:05:00.361Z,0
2016-10-21T04:06:00.430Z,0
2016-10-21T04:07:00.566Z,0
2016-10-21T04:08:00.533Z,0
2016-10-21T04:09:00.568Z,0
2016-10-21T04:10:00.627Z,0
2016-10-21T04:11:00.649Z,0
2016-10-21T04:12:00.798Z,0
2016-10-21T04:13:00.812Z,0
2016-10-21T04:14:00.839Z,0
2016-10-21T04:15:00.890Z,0
2016-10-21T04:16:00.932Z,0
2016-10-21T04:17:01.035Z,0
2016-10-21T04:18:01.119Z,0
2016-10-21T04:19:01.115Z,0
2016-10-21T04:20:01.183Z,0
2016-10-21T04:21:01.249Z,0
2016-10-21T04:22:01.337Z,0
2016-10-21T04:23:01.412Z,0
2016-10-21T04:24:01.367Z,0
2016-10-21T04:25:01.410Z,0
2016-10-21T04:26:01.486Z,0
2016-10-21T04:27:01.497Z,0
2016-10-21T04:28:01.674Z,0
2016-10-21T04:29:01.627Z,0
2016-10-21T04:30:01.690Z,0
2016-10-21T04:31:01.781Z,0
2016-10-21T04:32:01.786Z,0
2016-10-21T04:33:01.895Z,0
2016-10-21T04:34:01.921Z,0
2016-10-21T04:35:01.954Z,0
2016-10-21T04:36:02.038Z,0
2016-10-21T04:37:02.095Z,0
2016-10-21T04:38:02.294Z,0
2016-10-21T04:39:02.200Z,0
2016-10-21T04:40:02.225Z,0
2016-10-21T04:41:02.277Z,0
2016-10-21T04:42:02.290Z,0
2016-10-21T04:43:02.456Z,0
2016-10-21T04:44:02.461Z,0
2016-10-21T04:45:02.450Z,0
2016-10-21T04:46:02.566Z,0
2016-10-21T04:47:02.647Z,0
2016-10-21T04:48:02.661Z,0
2016-10-21T04:49:02.760Z,0
2016-10-21T04:50:02.751Z,0
2016-10-21T04:51:02.817Z,0
2016-10-21T04:52:03.366Z,0
2016-10-21T04:53:02.905Z,0
2016-10-21T04:54:03.071Z,0
2016-10-21T04:55:03.032Z,0
2016-10-21T04:56:03.123Z,0
2016-10-21T04:57:03.118Z,0
2016-10-21T04:58:03.167Z,0
2016-10-21T04:59:03.882Z,0
2016-10-21T05:00:03.269Z,0
2016-10-21T05:01:03.336Z,0
2016-10-21T05:02:03.374Z,0
2016-10-21T05:03:03.449Z,0
2016-10-21T05:04:03.601Z,0
2016-10-21T05:05:03.552Z,0
2016-10-21T05:06:03.827Z,0
2016-10-21T05:07:03.674Z,0
2016-10-21T05:08:03.687Z,0
2016-10-21T05:09:03.849Z,0
2016-10-21T05:10:03.818Z,0
2016-10-21T05:11:03.853Z,0
2016-10-21T05:12:04.455Z,0
2016-10-21T05:13:03.945Z,0
2016-10-21T05:14:04.075Z,0
2016-10-21T05:15:04.127Z,0
2016-10-21T05:16:04.090Z,0
2016-10-21T05:17:04.180Z,0
2016-10-21T05:18:04.213Z,0
2016-10-21T05:19:04.288Z,0
2016-10-21T05:20:04.477Z,0
2016-10-21T05:21:04.355Z,0
2016-10-21T05:22:04.471Z,0
2016-10-21T05:23:04.581Z,0
2016-10-21T05:24:04.543Z,0
2016-10-21T05:25:05.212Z,0
2016-10-21T05:26:04.722Z,0
2016-10-21T05:27:04.683Z,0
2016-10-21T05:28:04.766Z,0
2016-10-21T05:29:04.825Z,0
2016-10-21T05:30:04.961Z,0
2016-10-21T05:31:04.937Z,0
2016-10-21T05:32:04.993Z,0
2016-10-21T05:33:05.044Z,0
2016-10-21T05:34:05.056Z,0
2016-10-21T05:35:05.656Z,0
2016-10-21T05:36:05.175Z,0
2016-10-21T05:37:05.802Z,0
2016-10-21T05:38:05.273Z,0
2016-10-21T05:39:05.305Z,0
2016-10-21T05:40:05.503Z,0
2016-10-21T05:41:05.974Z,0
2016-10-21T05:42:05.542Z,0
2016-10-21T05:43:05.586Z,0
2016-10-21T05:44:05.602Z,0
2016-10-21T05:45:05.693Z,0
2016-10-21T05:46:05.700Z,0
2016-10-21T05:47:05.771Z,0
2016-10-21T05:48:05.824Z,0
2016-10-21T05:49:06.379Z,0
2016-10-21T05:50:06.002Z,0
2016-10-21T05:51:06.501Z,0
2016-10-21T05:52:06.032Z,0
2016-10-21T05:53:06.578Z,0
2016-10-21T05:54:06.183Z,0
2016-10-21T05:55:06.225Z,0
2016-10-21T05:56:06.351Z,0
2016-10-21T05:57:06.307Z,0
2016-10-21T05:58:06.338Z,0
2016-10-21T05:59:06.358Z,0
2016-10-21T06:00:06.448Z,0
2016-10-21T06:01:06.547Z,0
2016-10-21T06:02:06.552Z,0
2016-10-21T06:03:06.622Z,0
2016-10-21T06:04:06.663Z,0
2016-10-21T06:05:06.730Z,0
2016-10-21T06:06:06.826Z,0
2016-10-21T06:07:06.796Z,0
2016-10-21T06:08:06.834Z,0
2016-10-21T06:09:07.432Z,0
2016-10-21T06:10:07.485Z,0
2016-10-21T06:11:07.092Z,0
2016-10-21T06:12:07.090Z,0
2016-10-21T06:13:07.108Z,0
2016-10-21T06:14:07.166Z,0
2016-10-21T06:15:07.233Z,0
2016-10-21T06:16:07.392Z,0
2016-10-21T06:17:07.339Z,0
2016-10-21T06:18:07.439Z,0
2016-10-21T06:19:07.433Z,0
2016-10-21T06:20:07.506Z,0
2016-10-21T06:21:07.611Z,0
2016-10-21T06:22:07.574Z,0
2016-10-21T06:23:07.624Z,0
2016-10-21T06:24:07.716Z,0
2016-10-21T06:25:07.693Z,0
2016-10-21T06:26:07.890Z,0
2016-10-21T06:27:08.335Z,0
2016-10-21T06:28:07.899Z,0
2016-10-21T06:29:07.948Z,0
2016-10-21T06:30:07.968Z,0
2016-10-21T06:31:08.031Z,0
2016-10-21T06:32:08.219Z,0
2016-10-21T06:33:08.144Z,0
2016-10-21T06:34:08.751Z,0
2016-10-21T06:35:08.245Z,0
2016-10-21T06:36:08.351Z,0
2016-10-21T06:37:08.473Z,0
2016-10-21T06:38:08.387Z,0
2016-10-21T06:39:08.474Z,0
2016-10-21T06:40:08.483Z,0
2016-10-21T06:41:08.611Z,0
2016-10-21T06:42:08.754Z,0
2016-10-21T06:43:08.634Z,0
2016-10-21T06:44:08.690Z,0
2016-10-21T06:45:08.798Z,0
2016-10-21T06:46:08.804Z,0
2016-10-21T06:47:08.962Z,0
2016-10-21T06:48:08.956Z,0
2016-10-21T06:49:09.017Z,0
2016-10-21T06:50:09.002Z,0
2016-10-21T06:51:09.190Z,0
2016-10-21T06:52:09.785Z,0
2016-10-21T06:53:09.232Z,0
2016-10-21T06:54:09.263Z,0
2016-10-21T06:55:09.300Z,0
2016-10-21T06:56:09.851Z,0
2016-10-21T06:57:09.523Z,0
2016-10-21T06:58:09.442Z,0
2016-10-21T06:59:09.544Z,0
2016-10-21T07:00:09.529Z,0
2016-10-21T07:01:09.635Z,0
2016-10-21T07:02:09.770Z,0
2016-10-21T07:03:09.706Z,0
2016-10-21T07:04:09.777Z,0
2016-10-21T07:05:09.868Z,0
2016-10-21T07:06:09.874Z,0
2016-10-21T07:07:10.043Z,0
2016-10-21T07:08:09.986Z,0
2016-10-21T07:09:10.039Z,0
2016-10-21T07:10:10.062Z,0
2016-10-21T07:11:10.142Z,0
2016-10-21T07:12:10.184Z,0
2016-10-21T07:13:10.309Z,0
2016-10-21T07:14:10.258Z,0
2016-10-21T07:15:10.340Z,0
2016-10-21T07:16:10.427Z,0
2016-10-21T07:17:10.950Z,0
2016-10-21T07:18:10.622Z,0
2016-10-21T07:19:10.568Z,0
2016-10-21T07:20:11.619Z,0
2016-10-21T07:21:10.644Z,0
2016-10-21T07:22:10.704Z,0
2016-10-21T07:23:10.908Z,0
2016-10-21T07:24:10.771Z,0
2016-10-21T07:25:10.892Z,0
2016-10-21T07:26:10.881Z,0
2016-10-21T07:27:10.964Z,0
2016-10-21T07:28:11.111Z,0
2016-10-21T07:29:11.126Z,0
2016-10-21T07:30:11.157Z,0
2016-10-21T07:31:11.172Z,0
2016-10-21T07:32:11.263Z,0
2016-10-21T07:33:11.883Z,0
2016-10-21T07:34:11.841Z,0
2016-10-21T07:35:11.380Z,0
2016-10-21T07:36:11.443Z,0
2016-10-21T07:37:11.516Z,0
2016-10-21T07:38:11.710Z,0
2016-10-21T07:39:11.625Z,0
2016-10-21T07:40:11.630Z,0
2016-10-21T07:41:11.696Z,0
2016-10-21T07:42:11.756Z,0
2016-10-21T07:43:11.917Z,0
2016-10-21T07:44:11.860Z,0
2016-10-21T07:45:11.888Z,0
2016-10-21T07:46:11.917Z,0
2016-10-21T07:47:11.986Z,0
2016-10-21T07:48:12.049Z,0
2016-10-21T07:49:12.237Z,0
2016-10-21T07:50:12.184Z,0
2016-10-21T07:51:12.177Z,0
2016-10-21T07:52:12.825Z,0
2016-10-21T07:53:12.303Z,0
2016-10-21T07:54:12.495Z,0
2016-10-21T07:55:12.448Z,0
2016-10-21T07:56:12.466Z,0
2016-10-21T07:57:12.525Z,0
2016-10-21T07:58:12.551Z,0
2016-10-21T07:59:12.779Z,0
2016-10-21T08:00:12.700Z,0
2016-10-21T08:01:12.692Z,0
2016-10-21T08:02:12.804Z,0
2016-10-21T08:03:12.844Z,0
2016-10-21T08:04:12.996Z,0
2016-10-21T08:05:13.015Z,0
2016-10-21T08:06:13.015Z,0
2016-10-21T08:07:13.011Z,0
2016-10-21T08:08:13.627Z,0
2016-10-21T08:09:13.314Z,0
2016-10-21T08:10:13.212Z,0
2016-10-21T08:11:13.830Z,0
2016-10-21T08:12:13.324Z,0
2016-10-21T08:13:13.915Z,0
2016-10-21T08:14:13.501Z,0
2016-10-21T08:15:13.530Z,0
2016-10-21T08:16:13.572Z,0
2016-10-21T08:17:13.529Z,0
2016-10-21T08:18:13.604Z,0
2016-10-21T08:19:13.691Z,0
2016-10-21T08:20:14.343Z,0
2016-10-21T08:21:13.803Z,0
2016-10-21T08:22:13.792Z,0
2016-10-21T08:23:13.929Z,0
2016-10-21T08:24:13.892Z,0
2016-10-21T08:25:14.069Z,0
2016-10-21T08:26:14.031Z,0
2016-10-21T08:27:14.080Z,0
2016-10-21T08:28:14.678Z,0
2016-10-21T08:29:14.691Z,0
2016-10-21T08:30:14.351Z,0
2016-10-21T08:31:14.285Z,0
2016-10-21T08:32:14.310Z,0
2016-10-21T08:33:14.390Z,0
2016-10-21T08:34:14.444Z,0
2016-10-21T08:35:14.592Z,0
2016-10-21T08:36:15.056Z,0
2016-10-21T08:37:14.594Z,0
2016-10-21T08:38:14.672Z,0
2016-10-21T08:39:14.698Z,0
2016-10-21T08:40:14.853Z,0
2016-10-21T08:41:14.817Z,5
2016-10-21T08:42:14.832Z,5
2016-10-21T08:43:14.915Z,5
2016-10-21T08:44:14.965Z,5
2016-10-21T08:45:15.118Z,10
2016-10-21T08:46:15.169Z,10
2016-10-21T08:47:15.176Z,10
2016-10-21T08:48:15.162Z,10
2016-10-21T08:49:15.210Z,5
2016-10-21T08:50:15.820Z,5
2016-10-21T08:51:15.466Z,5
2016-10-21T08:52:15.424Z,5
2016-10-21T08:53:15.471Z,5
2016-10-21T08:54:15.516Z,5
2016-10-21T08:55:15.514Z,5
2016-10-21T08:56:15.787Z,5
2016-10-21T08:57:16.158Z,5
2016-10-21T08:58:15.719Z,5
2016-10-21T08:59:15.795Z,5
2016-10-21T09:00:15.827Z,5
2016-10-21T09:01:16.484Z,5
2016-10-21T09:02:15.904Z,5
2016-10-21T09:03:15.940Z,5
2016-10-21T09:04:16.508Z,5
2016-10-21T09:05:17.190Z,5
2016-10-21T09:06:16.270Z,5
2016-10-21T09:07:16.171Z,0
2016-10-21T09:08:16.769Z,0
2016-10-21T09:09:16.273Z,0
2016-10-21T09:10:16.328Z,0
2016-10-21T09:11:16.491Z,0
2016-10-21T09:12:16.954Z,0
2016-10-21T09:13:16.487Z,0
2016-10-21T09:14:17.063Z,0
2016-10-21T09:15:16.661Z,0
2016-10-21T09:16:16.717Z,0
2016-10-21T09:17:16.709Z,0
2016-10-21T09:18:16.913Z,5
2016-10-21T09:19:16.855Z,5
2016-10-21T09:20:16.830Z,5
2016-10-21T09:21:16.851Z,5
2016-10-21T09:22:17.049Z,5
2016-10-21T09:23:17.490Z,0
2016-10-21T09:24:17.558Z,0
2016-10-21T09:25:17.141Z,0
2016-10-21T09:26:17.211Z,0
2016-10-21T09:27:17.281Z,0
2016-10-21T09:28:17.287Z,5
2016-10-21T09:29:17.328Z,5
2016-10-21T09:30:17.319Z,5
2016-10-21T09:31:17.431Z,5
2016-10-21T09:32:18.895Z,10
2016-10-21T09:33:17.546Z,10
2016-10-21T09:34:17.521Z,10
2016-10-21T09:35:17.664Z,10
2016-10-21T09:36:17.687Z,10
2016-10-21T09:37:17.846Z,10
2016-10-21T09:38:18.348Z,15
2016-10-21T09:39:18.358Z,15
2016-10-21T09:40:18.452Z,15
2016-10-21T09:41:18.467Z,15
2016-10-21T09:42:18.588Z,15
2016-10-21T09:43:19.115Z,20
2016-10-21T09:44:18.600Z,20
2016-10-21T09:45:18.097Z,25
2016-10-21T09:46:19.233Z,30
2016-10-21T09:47:18.333Z,35
2016-10-21T09:48:18.295Z,45
2016-10-21T09:49:18.326Z,35
2016-10-21T09:50:18.929Z,30
2016-10-21T09:51:19.188Z,25
2016-10-21T09:52:18.608Z,25
2016-10-21T09:53:18.583Z,30
2016-10-21T09:54:18.657Z,30
2016-10-21T09:55:18.654Z,35
2016-10-21T09:56:18.678Z,35
2016-10-21T09:57:18.780Z,40
2016-10-21T09:58:19.954Z,40
2016-10-21T09:59:18.846Z,45
2016-10-21T10:00:18.908Z,50
2016-10-21T10:01:18.977Z,50
2016-10-21T10:02:19.600Z,50
2016-10-21T10:03:19.184Z,50
2016-10-21T10:04:19.144Z,55
2016-10-21T10:05:19.217Z,55
2016-10-21T10:06:19.250Z,60
2016-10-21T10:07:19.288Z,65
2016-10-21T10:08:19.954Z,75
2016-10-21T10:09:19.426Z,65
2016-10-21T10:10:19.950Z,50
2016-10-21T10:11:19.547Z,45
2016-10-21T10:12:19.619Z,50
2016-10-21T10:13:19.689Z,60
2016-10-21T10:14:19.682Z,65
2016-10-21T10:15:20.264Z,65
2016-10-21T10:16:20.351Z,65
2016-10-21T10:17:20.374Z,65
2016-10-21T10:18:19.957Z,50
2016-10-21T10:19:20.535Z,50
2016-10-21T10:20:19.969Z,50
2016-10-21T10:21:20.514Z,50
2016-10-21T10:22:20.099Z,50
2016-10-21T10:23:20.203Z,45
2016-10-21T10:24:20.149Z,45
2016-10-21T10:25:20.267Z,45
2016-10-21T10:26:20.321Z,50
2016-10-21T10:27:20.356Z,55
2016-10-21T10:28:20.521Z,60
2016-10-21T10:29:20.974Z,65
2016-10-21T10:30:20.497Z,75
2016-10-21T10:31:20.563Z,65
2016-10-21T10:32:20.631Z,60
2016-10-21T10:33:20.646Z,60
2016-10-21T10:34:21.323Z,55
2016-10-21T10:35:20.752Z,55
2016-10-21T10:36:21.883Z,55
2016-10-21T10:37:20.919Z,50
2016-10-21T10:38:21.428Z,50
2016-10-21T10:39:21.109Z,50
2016-10-21T10:40:21.048Z,55
2016-10-21T10:41:21.115Z,60
2016-10-21T10:42:21.607Z,60
2016-10-21T10:43:21.185Z,55
2016-10-21T10:44:21.318Z,55
2016-10-21T10:45:21.262Z,45
2016-10-21T10:46:21.913Z,40
2016-10-21T10:47:22.387Z,40
2016-10-21T10:48:21.426Z,40
2016-10-21T10:49:21.584Z,40
2016-10-21T10:50:22.128Z,45
2016-10-21T10:51:22.662Z,45
2016-10-21T10:52:22.178Z,45
2016-10-21T10:53:21.702Z,45
2016-10-21T10:54:21.869Z,45
2016-10-21T10:55:22.101Z,40
2016-10-21T10:56:21.950Z,35
2016-10-21T10:57:21.991Z,35
2016-10-21T10:58:22.541Z,35
2016-10-21T10:59:22.068Z,45
2016-10-21T11:00:22.749Z,50
2016-10-21T11:01:22.726Z,50
2016-10-21T11:02:23.273Z,50
2016-10-21T11:03:22.258Z,55
2016-10-21T11:04:23.865Z,55
2016-10-21T11:05:22.496Z,55
2016-10-21T11:06:22.419Z,55
2016-10-21T11:07:22.982Z,60
2016-10-21T11:08:22.454Z,65
2016-10-21T11:09:22.571Z,60
2016-10-21T11:10:22.712Z,60
2016-10-21T11:11:23.344Z,60
2016-10-21T11:12:24.280Z,55
2016-10-21T11:13:22.790Z,55
2016-10-21T11:14:22.840Z,60
2016-10-21T11:15:23.437Z,60
2016-10-21T11:16:23.973Z,60
2016-10-21T11:17:22.963Z,55
2016-10-21T11:18:23.037Z,55
2016-10-21T11:19:23.681Z,50
2016-10-21T11:20:23.226Z,50
2016-10-21T11:21:23.144Z,50
2016-10-21T11:22:23.247Z,50
2016-10-21T11:23:23.837Z,40
2016-10-21T11:24:23.903Z,35
2016-10-21T11:25:24.287Z,35
2016-10-21T11:26:23.994Z,35
2016-10-21T11:27:24.067Z,35
2016-10-21T11:28:24.688Z,40
2016-10-21T11:29:24.167Z,40
2016-10-21T11:30:23.673Z,45
2016-10-21T11:31:23.862Z,45
2016-10-21T11:32:24.277Z,55
2016-10-21T11:33:23.841Z,55
2016-10-21T11:34:23.882Z,55
2016-10-21T11:35:24.475Z,55
2016-10-21T11:36:25.303Z,60
2016-10-21T11:37:24.519Z,55
2016-10-21T11:38:24.597Z,55
2016-10-21T11:39:24.125Z,55
2016-10-21T11:40:24.204Z,65
2016-10-21T11:41:24.929Z,70
2016-10-21T11:42:24.327Z,80
2016-10-21T11:43:24.370Z,90
2016-10-21T11:44:24.928Z,110
2016-10-21T11:45:24.483Z,130
2016-10-21T11:46:24.907Z,145
2016-10-21T11:47:25.139Z,145
2016-10-21T11:48:25.967Z,130
2016-10-21T11:49:25.159Z,105
2016-10-21T11:50:24.710Z,90
2016-10-21T11:51:24.871Z,85
2016-10-21T11:52:24.775Z,90
2016-10-21T11:53:25.341Z,95
2016-10-21T11:54:24.872Z,95
2016-10-21T11:55:24.910Z,70
2016-10-21T11:56:25.075Z,55
2016-10-21T11:57:26.088Z,45
2016-10-21T11:58:25.637Z,45
2016-10-21T11:59:25.175Z,45
2016-10-21T12:00:25.793Z,50
2016-10-21T12:01:25.932Z,55
2016-10-21T12:02:25.379Z,55
2016-10-21T12:03:25.415Z,60
2016-10-21T12:04:25.459Z,65
2016-10-21T12:05:25.467Z,75
2016-10-21T12:06:26.240Z,85
2016-10-21T12:07:26.228Z,95
2016-10-21T12:08:26.356Z,95
2016-10-21T12:09:25.742Z,95
2016-10-21T12:10:25.779Z,100
2016-10-21T12:11:25.925Z,100
2016-10-21T12:12:25.875Z,105
2016-10-21T12:13:25.921Z,115
2016-10-21T12:14:26.517Z,120
2016-10-21T12:15:26.475Z,130
2016-10-21T12:16:26.664Z,135
2016-10-21T12:17:26.101Z,120
2016-10-21T12:18:26.687Z,125
2016-10-21T12:19:26.207Z,135
2016-10-21T12:20:26.825Z,170
2016-10-21T12:21:26.312Z,195
2016-10-21T12:22:28.109Z,220
2016-10-21T12:23:26.454Z,215
2016-10-21T12:24:26.963Z,195
2016-10-21T12:25:26.554Z,170
2016-10-21T12:26:27.086Z,145
2016-10-21T12:27:26.797Z,135
2016-10-21T12:28:27.212Z,140
2016-10-21T12:29:26.784Z,145
2016-10-21T12:30:27.326Z,160
2016-10-21T12:31:27.893Z,155
2016-10-21T12:32:27.026Z,135
2016-10-21T12:33:27.554Z,135
2016-10-21T12:34:26.993Z,110
2016-10-21T12:35:27.093Z,105
2016-10-21T12:36:27.135Z,105
2016-10-21T12:37:27.320Z,100
2016-10-21T12:38:27.226Z,100
2016-10-21T12:39:27.329Z,105
2016-10-21T12:40:27.332Z,120
2016-10-21T12:41:27.454Z,115
2016-10-21T12:42:27.569Z,105
2016-10-21T12:43:27.459Z,100
2016-10-21T12:44:27.542Z,110
2016-10-21T12:45:28.149Z,100
2016-10-21T12:46:27.634Z,90
2016-10-21T12:47:28.349Z,90
2016-10-21T12:48:28.691Z,90
2016-10-21T12:49:27.837Z,90
2016-10-21T12:50:27.902Z,95
2016-10-21T12:51:27.923Z,100
2016-10-21T12:52:28.088Z,110
2016-10-21T12:53:29.348Z,115
2016-10-21T12:54:28.145Z,125
2016-10-21T12:55:28.108Z,135
2016-10-21T12:56:28.723Z,130
2016-10-21T12:57:28.242Z,120
2016-10-21T12:58:28.376Z,120
2016-10-21T12:59:28.363Z,110
2016-10-21T13:00:28.630Z,95
2016-10-21T13:01:28.916Z,90
2016-10-21T13:02:29.025Z,85
2016-10-21T13:03:28.618Z,80
2016-10-21T13:04:28.619Z,80
2016-10-21T13:05:28.925Z,80
2016-10-21T13:06:29.275Z,85
2016-10-21T13:07:28.775Z,80
2016-10-21T13:08:28.920Z,75
2016-10-21T13:09:29.396Z,75
2016-10-21T13:10:28.941Z,75
2016-10-21T13:11:28.985Z,75
2016-10-21T13:12:29.604Z,75
2016-10-21T13:13:29.728Z,75
2016-10-21T13:14:29.081Z,70
2016-10-21T13:15:29.221Z,70
2016-10-21T13:16:29.272Z,75
2016-10-21T13:17:29.831Z,75
2016-10-21T13:18:29.460Z,70
2016-10-21T13:19:29.392Z,75
2016-10-21T13:20:29.525Z,80
2016-10-21T13:21:29.528Z,90
2016-10-21T13:22:29.524Z,105
2016-10-21T13:23:29.710Z,120
2016-10-21T13:24:30.142Z,140
2016-10-21T13:25:29.746Z,160
2016-10-21T13:26:30.359Z,155
2016-10-21T13:27:30.296Z,150
2016-10-21T13:28:30.503Z,130
2016-10-21T13:29:29.925Z,125
2016-10-21T13:30:29.960Z,120
2016-10-21T13:31:30.012Z,110
2016-10-21T13:32:30.065Z,95
2016-10-21T13:33:30.130Z,85
2016-10-21T13:34:30.357Z,70
2016-10-21T13:35:30.272Z,65
2016-10-21T13:36:30.831Z,60
2016-10-21T13:37:30.351Z,60
2016-10-21T13:38:30.404Z,55
2016-10-21T13:39:30.544Z,50
2016-10-21T13:40:30.994Z,45
2016-10-21T13:41:30.571Z,45
2016-10-21T13:42:31.215Z,45
2016-10-21T13:43:30.684Z,45
2016-10-21T13:44:31.374Z,45
2016-10-21T13:45:30.769Z,45
2016-10-21T13:46:30.858Z,45
2016-10-21T13:47:30.883Z,45
2016-10-21T13:48:30.994Z,45
2016-10-21T13:49:31.116Z,45
2016-10-21T13:50:31.006Z,45
2016-10-21T13:51:32.229Z,45
2016-10-21T13:52:31.625Z,45
2016-10-21T13:53:31.237Z,50
2016-10-21T13:54:31.878Z,55
2016-10-21T13:55:31.805Z,55
2016-10-21T13:56:31.863Z,55
2016-10-21T13:57:31.361Z,60
2016-10-21T13:58:31.467Z,60
2016-10-21T13:59:32.142Z,65
2016-10-21T14:00:31.575Z,65
2016-10-21T14:01:32.191Z,65
2016-10-21T14:02:31.642Z,60
2016-10-21T14:03:31.683Z,60
2016-10-21T14:04:32.942Z,60
2016-10-21T14:05:31.814Z,55
2016-10-21T14:06:31.897Z,55
2016-10-21T14:07:31.963Z,55
2016-10-21T14:08:32.004Z,50
2016-10-21T14:09:32.634Z,45
2016-10-21T14:10:32.622Z,45
2016-10-21T14:11:32.176Z,40
2016-10-21T14:12:33.228Z,45
2016-10-21T14:13:32.803Z,45
2016-10-21T14:14:32.326Z,50
2016-10-21T14:15:32.474Z,55
2016-10-21T14:16:32.448Z,55
2016-10-21T14:17:32.485Z,55
2016-10-21T14:18:33.053Z,60
2016-10-21T14:19:33.061Z,65
2016-10-21T14:20:32.749Z,65
2016-10-21T14:21:32.734Z,70
2016-10-21T14:22:32.738Z,70
2016-10-21T14:23:32.756Z,70
2016-10-21T14:24:32.842Z,75
2016-10-21T14:25:33.448Z,70
2016-10-21T14:26:32.936Z,70
2016-10-21T14:27:32.985Z,65
2016-10-21T14:28:33.019Z,60
2016-10-21T14:29:33.608Z,60
2016-10-21T14:30:33.245Z,60
2016-10-21T14:31:33.197Z,60
2016-10-21T14:32:33.440Z,60
2016-10-21T14:33:33.276Z,65
2016-10-21T14:34:33.369Z,65